createdAt,value
2022-10-28T00:00:07.224Z,1.04
2022-10-28T00:00:42.510Z,0.08
2022-10-28T00:01:17.824Z,0.00
2022-10-28T00:01:53.069Z,0.80
2022-10-28T00:02:28.268Z,0.32
2022-10-28T00:03:03.340Z,0.72
2022-10-28T00:03:38.853Z,1.36
2022-10-28T00:04:14.741Z,0.16
2022-10-28T00:04:50.075Z,1.20
2022-10-28T00:05:26.335Z,1.84
2022-10-28T00:06:01.305Z,0.48
2022-10-28T00:06:36.603Z,0.00
2022-10-28T00:07:12.004Z,1.12
2022-10-28T00:07:47.218Z,1.60
2022-10-28T00:08:22.426Z,0.24
2022-10-28T00:08:57.700Z,1.44
2022-10-28T00:09:33.006Z,1.68
2022-10-28T00:10:08.427Z,2.00
2022-10-28T00:10:43.502Z,2.08
2022-10-28T00:11:18.715Z,1.04
2022-10-28T00:11:53.619Z,3.04
2022-10-28T00:12:28.941Z,1.84
2022-10-28T00:13:03.955Z,1.52
2022-10-28T00:13:39.038Z,2.48
2022-10-28T00:14:14.127Z,1.76
2022-10-28T00:14:49.133Z,1.68
2022-10-28T00:15:24.416Z,0.88
2022-10-28T00:15:59.702Z,2.24
2022-10-28T00:16:34.843Z,1.84
2022-10-28T00:17:09.984Z,0.72
2022-10-28T00:17:45.218Z,1.44
2022-10-28T00:18:20.531Z,1.44
2022-10-28T00:18:55.921Z,0.08
2022-10-28T00:19:31.093Z,0.56
2022-10-28T00:20:06.284Z,1.12
2022-10-28T00:20:41.367Z,1.36
2022-10-28T00:21:16.588Z,0.08
2022-10-28T00:21:51.889Z,1.20
2022-10-28T00:22:27.116Z,0.56
2022-10-28T00:23:02.284Z,1.52
2022-10-28T00:23:37.600Z,0.88
2022-10-28T00:24:12.803Z,1.20
2022-10-28T00:24:48.079Z,1.28
2022-10-28T00:25:23.383Z,0.96
2022-10-28T00:25:58.569Z,1.76
2022-10-28T00:26:33.970Z,1.60
2022-10-28T00:27:09.372Z,1.36
2022-10-28T00:27:44.676Z,1.76
2022-10-28T00:28:19.966Z,1.60
2022-10-28T00:28:55.163Z,1.68
2022-10-28T00:29:30.358Z,1.92
2022-10-28T00:30:05.670Z,2.40
2022-10-28T00:30:40.660Z,1.04
2022-10-28T00:31:15.977Z,1.68
2022-10-28T00:31:51.053Z,0.88
2022-10-28T00:32:26.459Z,0.80
2022-10-28T00:33:01.636Z,1.44
2022-10-28T00:33:36.930Z,1.28
2022-10-28T00:34:11.907Z,1.60
2022-10-28T00:34:47.316Z,1.92
2022-10-28T00:35:22.597Z,1.84
2022-10-28T00:35:57.792Z,0.40
2022-10-28T00:36:33.130Z,1.84
2022-10-28T00:37:08.213Z,2.24
2022-10-28T00:37:43.424Z,1.68
2022-10-28T00:38:18.608Z,0.32
2022-10-28T00:38:53.608Z,0.00
2022-10-28T00:39:28.901Z,0.00
2022-10-28T00:40:03.993Z,0.48
2022-10-28T00:40:39.088Z,1.52
2022-10-28T00:41:17.451Z,0.80
2022-10-28T00:41:52.842Z,0.88
2022-10-28T00:42:28.155Z,1.36
2022-10-28T00:43:03.342Z,0.24
2022-10-28T00:43:38.541Z,0.00
2022-10-28T00:44:14.121Z,0.40
2022-10-28T00:44:49.519Z,0.96
2022-10-28T00:45:24.821Z,1.44
2022-10-28T00:46:00.206Z,0.40
2022-10-28T00:46:35.511Z,1.12
2022-10-28T00:47:11.102Z,1.12
2022-10-28T00:47:46.597Z,0.88
2022-10-28T00:48:22.101Z,0.80
2022-10-28T00:48:57.231Z,1.36
2022-10-28T00:49:32.462Z,0.56
2022-10-28T00:50:07.672Z,0.80
2022-10-28T00:50:42.781Z,1.28
2022-10-28T00:51:18.175Z,1.44
2022-10-28T00:51:53.362Z,1.28
2022-10-28T00:52:28.649Z,1.28
2022-10-28T00:53:04.054Z,0.32
2022-10-28T00:53:39.255Z,1.52
2022-10-28T00:54:14.752Z,1.12
2022-10-28T00:54:50.202Z,0.08
2022-10-28T00:55:25.596Z,1.36
2022-10-28T00:56:00.769Z,0.16
2022-10-28T00:56:37.343Z,0.00
2022-10-28T00:57:12.464Z,0.00
2022-10-28T00:57:47.741Z,0.64
2022-10-28T00:58:23.267Z,1.76
2022-10-28T00:58:58.418Z,1.12
2022-10-28T00:59:33.582Z,0.72
2022-10-28T01:00:08.704Z,0.32
2022-10-28T01:00:43.894Z,0.64
2022-10-28T01:01:19.382Z,1.36
2022-10-28T01:01:54.533Z,0.40
2022-10-28T01:02:29.869Z,2.16
2022-10-28T01:03:05.234Z,0.16
2022-10-28T01:03:40.534Z,0.80
2022-10-28T01:04:16.175Z,0.08
2022-10-28T01:04:51.581Z,0.00
2022-10-28T01:05:27.697Z,0.24
2022-10-28T01:06:02.874Z,0.08
2022-10-28T01:06:38.089Z,0.24
2022-10-28T01:07:13.127Z,1.84
2022-10-28T01:07:49.465Z,0.88
2022-10-28T01:08:24.597Z,1.60
2022-10-28T01:09:00.355Z,0.56
2022-10-28T01:09:35.316Z,0.00
2022-10-28T01:10:10.391Z,0.48
2022-10-28T01:10:45.526Z,0.00
2022-10-28T01:11:20.673Z,1.12
2022-10-28T01:11:56.750Z,0.88
2022-10-28T01:12:31.993Z,2.48
2022-10-28T01:13:07.548Z,1.60
2022-10-28T01:13:42.861Z,0.96
2022-10-28T01:14:18.218Z,2.96
2022-10-28T01:14:53.355Z,3.04
2022-10-28T01:15:28.428Z,0.80
2022-10-28T01:16:03.828Z,0.00
2022-10-28T01:16:39.307Z,0.24
2022-10-28T01:17:14.571Z,0.00
2022-10-28T01:17:49.778Z,0.24
2022-10-28T01:18:25.040Z,1.12
2022-10-28T01:19:00.668Z,0.16
2022-10-28T01:19:35.674Z,0.24
2022-10-28T01:20:10.873Z,1.20
2022-10-28T01:20:48.334Z,0.16
2022-10-28T01:21:21.539Z,0.00
2022-10-28T01:21:56.853Z,0.00
2022-10-28T22:01:12.453Z,0.80
2022-10-28T22:01:48.732Z,1.84
2022-10-28T22:02:23.863Z,2.96
2022-10-28T22:02:58.913Z,1.76
2022-10-28T22:03:34.163Z,2.80
2022-10-28T22:04:09.369Z,2.88
2022-10-28T22:04:44.565Z,2.24
2022-10-28T22:05:19.756Z,2.08
2022-10-28T22:05:55.142Z,1.68
2022-10-28T22:06:30.618Z,1.20
2022-10-28T22:07:05.727Z,3.68
2022-10-28T22:07:41.228Z,2.32
2022-10-28T22:08:16.631Z,2.08
2022-10-28T22:08:51.726Z,4.00
2022-10-28T22:09:26.819Z,3.52
2022-10-28T22:10:02.240Z,2.56
2022-10-28T22:10:37.434Z,0.80
2022-10-28T22:11:20.394Z,2.00
2022-10-28T22:11:55.703Z,3.04
2022-10-28T22:12:30.954Z,2.96
2022-10-28T22:13:06.512Z,3.04
2022-10-28T22:13:41.382Z,1.76
2022-10-28T22:14:16.968Z,3.68
2022-10-28T22:14:52.072Z,2.96
2022-10-28T22:15:27.152Z,4.24
2022-10-28T22:16:02.236Z,3.12
2022-10-28T22:16:37.705Z,1.52
2022-10-28T22:17:13.216Z,3.36
2022-10-28T22:17:48.728Z,2.88
2022-10-28T22:18:23.824Z,1.92
2022-10-28T22:18:59.228Z,2.16
2022-10-28T22:19:34.815Z,2.88
2022-10-28T22:20:10.327Z,3.12
2022-10-28T22:20:45.445Z,3.60
2022-10-28T22:21:20.532Z,3.84
2022-10-28T22:21:55.830Z,2.72
2022-10-28T22:22:31.036Z,2.16
2022-10-28T22:23:06.130Z,2.80
2022-10-28T22:23:41.223Z,2.32
2022-10-28T22:24:16.625Z,5.28
2022-10-28T22:24:58.750Z,2.64
2022-10-28T22:25:33.943Z,2.08
2022-10-28T22:26:09.153Z,3.44
2022-10-28T22:26:44.364Z,2.24
2022-10-28T22:27:19.690Z,2.00
2022-10-28T22:27:55.541Z,2.80
2022-10-28T22:28:30.726Z,2.24
2022-10-28T22:29:05.932Z,2.72
2022-10-28T22:29:41.122Z,1.52
2022-10-28T22:30:16.328Z,3.20
2022-10-28T22:30:51.748Z,3.04
2022-10-28T22:31:27.099Z,2.08
2022-10-28T22:32:02.324Z,3.28
2022-10-28T22:32:37.831Z,2.48
2022-10-28T22:33:12.933Z,1.92
